Latest Weather Observations for Tocal

IDN60801

Issued at 7:05 pm EST Wednesday 23 April 2014 (issued every 30 minutes, with the page automatically refreshed every 10 minutes)

About weather observations | Map of weather stations | Latest weather observations for NSW | Other Formats
Station Details ID: 061250 Name: TOCAL AWS Lat: -32.63 Lon: 151.59 Height: 30.0 m
Data from the previous 72 hours. | See also: Recent months at Tocal
Date/Time
EST
Temp
°C
App
Temp
°C
Dew
Point
Rel
Hum
%
Delta-T
°C
Wind Press
QNH
hPa
Press
MSL
hPa
Rain
since 9 am
mm
Dir
 
Spd
km/h
Gust
km/h
Spd
kts
Gust
kts
23/07:00pm 17.4 16.9 12.7 74 2.6 WNW 7 9 4 5 - - 0.0
23/06:30pm 19.3 20.1 12.7 65 3.7 WNW 0 0 0 0 - - 0.0
23/06:00pm 19.8 18.7 11.9 60 4.4 S 9 11 5 6 - - 0.0
23/05:30pm 20.5 19.8 11.9 57 4.8 S 7 11 4 6 - - 0.0
23/05:00pm 21.6 19.7 11.8 53 5.5 SSE 13 17 7 9 - - 0.0
23/04:30pm 23.2 21.1 12.3 50 6.2 SSE 15 22 8 12 - - 0.0
23/04:00pm 26.3 24.1 9.4 34 9.3 WSW 11 19 6 10 - - 0.0
23/03:30pm 27.3 23.9 9.1 31 10.0 WSW 17 24 9 13 - - 0.0
23/03:00pm 27.4 25.1 10.3 34 9.6 W 13 20 7 11 - - 0.0
23/02:30pm 27.1 26.2 12.5 40 8.5 SSW 9 15 5 8 - - 0.0
23/02:00pm 26.5 25.1 12.1 40 8.3 W 11 17 6 9 - - 0.0
23/01:30pm 27.3 26.6 13.2 41 8.3 W 9 15 5 8 - - 0.0
23/01:00pm 26.6 25.9 13.3 43 7.8 NW 9 17 5 9 - - 0.0
23/12:30pm 25.8 25.5 13.3 46 7.3 ESE 7 13 4 7 - - 0.0
23/12:00pm 25.0 24.6 12.9 47 7.0 NE 7 11 4 6 - - 0.0
23/11:30am 23.8 23.4 12.4 48 6.5 W 6 9 3 5 - - 0.0
23/11:00am 23.5 23.1 12.3 49 6.4 S 6 7 3 4 - - 0.0
23/10:30am 22.1 22.4 12.2 53 5.6 SSW 2 7 1 4 - - 0.0
23/10:00am 20.8 20.5 12.7 59 4.6 E 6 9 3 5 - - 0.0
23/09:30am 19.5 19.0 12.1 62 4.1 ESE 6 9 3 5 - - 0.0
23/09:00am 18.6 18.1 12.1 66 3.6 NE 6 7 3 4 - - 0.0
23/08:30am 16.6 17.2 11.8 73 2.6 CALM 0 0 0 0 - - 0.0
23/08:00am 14.8 15.4 11.8 82 1.6 CALM 0 0 0 0 - - 0.0
23/07:30am 12.5 11.4 10.6 88 1.0 SW 7 9 4 5 - - 0.0
23/07:00am 10.9 9.7 9.7 92 0.6 NW 6 9 3 5 - - 0.0
23/06:30am 10.5 9.2 9.9 96 0.3 WSW 7 9 4 5 - - 0.0
23/06:00am 11.2 11.2 9.8 91 0.7 CALM 0 0 0 0 - - 0.0
23/05:30am 10.4 9.6 9.6 95 0.4 WNW 4 7 2 4 - - 0.0
23/05:00am 11.2 10.1 10.0 92 0.6 WSW 6 7 3 4 - - 0.0
23/04:30am 11.2 11.2 9.8 91 0.7 CALM 0 0 0 0 - - 0.0
23/04:00am 11.9 12.0 10.1 89 0.9 CALM 0 0 0 0 - - 0.0
23/03:30am 11.8 11.1 10.0 89 0.9 W 4 7 2 4 - - 0.0
23/03:00am 13.5 13.0 10.8 84 1.4 SW 4 9 2 5 - - 0.0
23/02:30am 12.8 11.7 10.1 84 1.4 WSW 6 7 3 4 - - 0.0
23/02:00am 12.5 11.5 10.2 86 1.2 W 6 7 3 4 - - 0.0
23/01:30am 12.3 12.5 10.6 89 0.9 CALM 0 0 0 0 - - 0.0
23/01:00am 12.1 11.1 10.4 89 0.9 NW 6 7 3 4 - - 0.0
23/12:30am 13.0 11.9 10.7 86 1.2 W 7 9 4 5 - - 0.0
23/12:00am 13.5 12.6 10.8 84 1.4 W 6 7 3 4 - - 0.0
 
Date/Time
EST
Temp
°C
App
Temp
°C
Dew
Point
Rel
Hum
%
Delta-T
°C
Wind Press
QNH
hPa
Press
MSL
hPa
Rain
since 9 am
mm
Dir
 
Spd
km/h
Gust
km/h
Spd
kts
Gust
kts
22/11:30pm 13.5 12.6 10.8 84 1.4 NW 6 7 3 4 - - 0.0
22/11:00pm 14.4 14.7 10.8 79 1.9 CALM 0 0 0 0 - - 0.0
22/10:30pm 15.3 15.6 10.8 74 2.4 CALM 0 0 0 0 - - 0.0
22/10:00pm 14.9 14.0 10.7 76 2.2 W 6 7 3 4 - - 0.0
22/09:30pm 15.0 14.6 11.1 77 2.1 W 4 7 2 4 - - 0.0
22/09:00pm 15.4 15.4 11.1 75 2.3 WNW 2 9 1 5 - - 0.0
22/08:30pm 15.6 14.9 11.3 75 2.3 WNW 6 7 3 4 - - 0.0
22/08:00pm 16.3 16.6 12.3 77 2.2 WNW 2 9 1 5 - - 0.0
22/07:30pm 17.2 16.5 11.5 69 3.1 NW 6 7 3 4 - - 0.0
22/07:00pm 18.2 17.3 11.2 63 3.8 NNW 7 9 4 5 - - 0.0
22/06:30pm 18.9 18.4 12.5 66 3.6 NNW 7 11 4 6 - - 0.0
22/06:00pm 20.7 20.8 11.5 55 5.1 E 2 7 1 4 - - 0.0
22/05:30pm 21.3 20.8 12.2 56 5.1 NW 6 7 3 4 - - 0.0
22/05:00pm 22.6 21.7 11.3 48 6.3 W 7 9 4 5 - - 0.0
22/04:30pm 23.7 22.7 11.0 44 7.1 W 7 11 4 6 - - 0.0
22/04:00pm 24.5 22.3 9.2 37 8.3 W 11 15 6 8 - - 0.0
22/03:30pm 26.1 23.1 9.3 34 9.2 W 15 24 8 13 - - 0.0
22/03:00pm 25.5 22.6 9.7 37 8.7 WNW 15 24 8 13 - - 0.0
22/02:30pm 25.1 20.6 8.6 35 8.9 W 22 30 12 16 - - 0.0
22/02:00pm 25.2 21.6 8.5 34 9.0 W 17 28 9 15 - - 0.0
22/01:30pm 25.2 22.4 8.5 34 9.0 W 13 24 7 13 - - 0.0
22/01:00pm 24.5 22.1 10.0 40 8.0 W 13 17 7 9 - - 0.0
22/12:30pm 24.5 22.9 11.4 43 7.4 NW 11 24 6 13 - - 0.0
22/12:00pm 22.7 24.1 14.4 59 4.9 CALM 0 0 0 0 - - 0.0
22/11:30am 22.3 22.2 13.9 59 4.9 ENE 7 9 4 5 - - 0.0
22/11:00am 21.1 21.0 13.2 60 4.5 S 6 7 3 4 - - 0.0
22/10:30am 20.1 20.1 13.7 66 3.7 NE 6 9 3 5 - - 0.0
22/10:00am 18.2 17.5 12.0 67 3.4 NE 7 11 4 6 - - 0.0
22/09:30am 16.9 16.1 11.6 71 2.9 NE 7 11 4 6 - - 0.0
22/09:00am 14.9 14.1 11.7 81 1.7 ENE 7 9 4 5 - - 0.0
22/08:30am 13.3 12.3 11.0 86 1.2 NNE 7 9 4 5 - - 0.0
22/08:00am 11.5 11.6 10.3 92 0.6 CALM 0 0 0 0 - - 0.0
22/07:30am 9.6 8.6 9.0 96 0.3 NW 4 7 2 4 - - 0.0
22/07:00am 8.7 7.3 8.7 100 0.0 WNW 6 7 3 4 - - 0.0
22/06:30am 8.3 6.7 8.1 99 0.1 W 6 7 3 4 - - 0.0
22/06:00am 8.0 6.4 7.8 99 0.1 NW 6 7 3 4 - - 0.0
22/05:30am 8.9 7.3 8.7 99 0.1 W 7 9 4 5 - - 0.0
22/05:00am 9.5 8.0 9.1 97 0.2 WSW 7 7 4 4 - - 0.0
22/04:30am 8.7 7.2 8.3 97 0.2 NW 6 7 3 4 - - 0.0
22/04:00am 8.7 8.0 8.5 99 0.1 W 2 6 1 3 - - 0.0
22/03:30am 8.7 7.2 8.5 99 0.1 W 6 7 3 4 - - 0.0
22/03:00am 8.8 8.5 8.6 99 0.1 CALM 0 0 0 0 - - 0.0
22/02:30am 9.3 7.9 8.9 97 0.2 NW 6 7 3 4 - - 0.0
22/02:00am 9.3 7.9 8.9 97 0.2 NW 6 7 3 4 - - 0.0
22/01:30am 10.0 9.9 9.4 96 0.3 CALM 0 0 0 0 - - 0.0
22/01:00am 9.9 9.7 8.9 93 0.5 CALM 0 0 0 0 - - 0.0
22/12:30am 10.6 10.1 9.4 92 0.6 W 2 7 1 4 - - 0.0
22/12:00am 10.7 10.6 9.3 91 0.7 CALM 0 0 0 0 - - 0.0
 
Date/Time
EST
Temp
°C
App
Temp
°C
Dew
Point
Rel
Hum
%
Delta-T
°C
Wind Press
QNH
hPa
Press
MSL
hPa
Rain
since 9 am
mm
Dir
 
Spd
km/h
Gust
km/h
Spd
kts
Gust
kts
21/11:30pm 10.8 10.7 9.4 91 0.7 CALM 0 4 0 2 - - 0.0
21/11:00pm 10.6 9.7 9.2 91 0.7 W 4 7 2 4 - - 0.0
21/10:30pm 10.6 9.3 9.2 91 0.7 WNW 6 7 3 4 - - 0.0
21/10:00pm 11.0 10.5 9.2 89 0.9 W 2 6 1 3 - - 0.0
21/09:30pm 11.2 10.3 9.4 89 0.9 NW 4 7 2 4 - - 0.0
21/09:00pm 11.8 10.4 9.4 85 1.2 NW 7 7 4 4 - - 0.0
21/08:30pm 11.9 10.8 9.9 87 1.0 NW 6 9 3 5 - - 0.0
21/08:00pm 13.1 12.7 9.8 80 1.7 WNW 2 6 1 3 - - 0.0
21/07:30pm 13.0 11.9 10.7 86 1.2 NW 7 9 4 5 - - 0.0
21/07:00pm 14.2 13.3 10.8 80 1.8 NW 6 7 3 4 - - 0.0
21/06:30pm 15.3 14.2 10.8 74 2.4 WNW 7 9 4 5 - - 0.0
21/06:00pm 17.2 17.4 10.7 65 3.5 CALM 0 0 0 0 - - 0.0
21/05:30pm 18.6 17.5 10.0 57 4.6 WNW 6 7 3 4 - - 0.0
21/05:00pm 20.3 19.8 9.2 49 5.9 S 2 7 1 4 - - 0.0
21/04:30pm 21.1 19.6 9.3 46 6.3 S 7 7 4 4 - - 0.0
21/04:00pm 21.8 20.3 9.1 44 6.8 SSE 7 15 4 8 - - 0.0
21/03:30pm 22.7 20.7 8.8 41 7.4 NE 9 13 5 7 - - 0.0
21/03:00pm 22.7 21.1 8.6 40 7.5 SSE 7 9 4 5 - - 0.0
21/02:30pm 22.6 20.4 7.9 39 7.7 SSW 9 15 5 8 - - 0.0
21/02:00pm 23.0 20.7 9.0 41 7.5 W 11 22 6 12 - - 0.0
21/01:30pm 21.7 19.5 7.9 41 7.2 WSW 9 15 5 8 - - 0.0
21/01:00pm 21.9 19.0 8.2 41 7.2 WSW 13 20 7 11 - - 0.0
21/12:30pm 21.7 19.0 7.4 39 7.4 W 11 19 6 10 - - 0.0
21/12:00pm 21.2 18.0 6.9 39 7.3 W 13 20 7 11 - - 0.0
21/11:30am 20.6 18.1 8.1 44 6.5 W 11 17 6 9 - - 0.0
21/11:00am 20.5 17.9 9.4 49 5.9 W 13 17 7 9 - - 0.0
21/10:30am 19.8 17.2 9.4 51 5.5 W 13 20 7 11 - - 0.0
21/10:00am 19.6 18.7 10.6 56 4.9 NNE 6 9 3 5 - - 0.0
21/09:30am 17.8 16.5 10.1 60 4.1 ENE 7 9 4 5 - - 0.0
21/09:00am 16.8 15.4 9.5 62 3.8 E 7 9 4 5 - - 0.0
21/08:30am 15.8 14.9 10.7 71 2.7 E 6 7 3 4 - - 0.0
21/08:00am 13.1 13.0 9.6 79 1.8 CALM 0 0 0 0 - - 0.0
21/07:30am 11.1 11.0 9.3 89 0.9 CALM 0 6 0 3 - - 0.0
21/07:00am 9.3 9.0 8.7 96 0.3 CALM 0 0 0 0 - - 0.0
21/06:30am 8.3 7.8 7.9 97 0.2 CALM 0 0 0 0 - - 0.0
21/06:00am 8.4 7.9 8.0 97 0.2 CALM 0 0 0 0 - - 0.0
21/05:30am 8.7 8.4 8.5 99 0.1 CALM 0 0 0 0 - - 0.0
21/05:00am 9.3 8.5 8.3 93 0.5 ESE 2 7 1 4 - - 0.0
21/04:30am 9.7 9.2 7.8 88 0.9 CALM 0 0 0 0 - - 0.0
21/04:00am 9.4 8.2 7.9 90 0.7 WSW 4 9 2 5 - - 0.0
21/03:30am 8.8 7.2 8.0 95 0.4 NW 6 7 3 4 - - 0.0
21/03:00am 10.6 10.2 8.1 84 1.2 CALM 0 6 0 3 - - 0.0
21/02:30am 10.9 10.1 8.2 83 1.3 NNW 2 9 1 5 - - 0.0
21/02:00am 10.6 10.4 9.0 90 0.8 CALM 0 0 0 0 - - 0.0
21/01:30am 10.1 8.5 8.7 91 0.7 NW 7 9 4 5 - - 0.0
21/01:00am 12.6 12.6 9.9 83 1.4 CALM 0 0 0 0 - - 0.0
21/12:30am 12.2 12.2 9.9 86 1.2 CALM 0 0 0 0 - - 0.0
21/12:00am 12.0 11.9 9.6 85 1.2 CALM 0 0 0 0 - - 0.0
 
Date/Time
EST
Temp
°C
App
Temp
°C
Dew
Point
Rel
Hum
%
Delta-T
°C
Wind Press
QNH
hPa
Press
MSL
hPa
Rain
since 9 am
mm
Dir
 
Spd
km/h
Gust
km/h
Spd
kts
Gust
kts
20/11:30pm 12.8 12.9 10.1 84 1.4 CALM 0 0 0 0 - - 0.0
20/11:00pm 11.9 10.7 9.7 86 1.1 W 6 7 3 4 - - 0.0
20/10:30pm 12.5 12.2 10.0 85 1.3 W 2 6 1 3 - - 0.0
20/10:00pm 11.6 11.3 10.0 90 0.8 W 2 7 1 4 - - 0.0
20/09:30pm 12.3 11.2 9.8 85 1.3 NW 6 7 3 4 - - 0.0
20/09:00pm 12.8 12.1 9.9 82 1.5 W 4 6 2 3 - - 0.0
20/08:30pm 12.8 11.6 10.3 85 1.3 NNW 7 9 4 5 - - 0.0
20/08:00pm 13.4 12.4 11.1 86 1.2 NW 7 9 4 5 - - 0.0
20/07:30pm 14.4 13.6 11.6 83 1.5 WNW 7 7 4 4 - - 0.0

Other Formats:

Comma delimited format used in spreadsheet applications
http://www.bom.gov.au/fwo/IDN60801/IDN60801.94775.axf

JavaScript Object Notation format (JSON) in row-major order
http://www.bom.gov.au/fwo/IDN60801/IDN60801.94775.json